ENCN

Kristiansand Airport

Kjevik, Norway
METAR ENCN 161720Z 08005KT 9999 -RASN FEW023 BKN036 01/M00 Q1015
Observed Flight Rules
Dec-16 @ 17:20 UTC (10 minutes ago) Visual Flight Rules
Wind Visibility Clouds Conditions
80° at 5 knots 10,000+ meters
  • Few at 2,300' AGL
  • Broken at 3,600' AGL
  • Light Rain
  • Light Snow
Temperatures Readings
Current 1°C / 34°F
Dewpoint 0°C / 32°F
Humidity 93%
Altimeter 29.97" Hg
Pressure 1015 hPa
Elevation 17
METAR ENCN 161720Z 08005KT 9999 -RASN FEW023 BKN036 01/M00 Q1015
Observed Flight Rules
Dec-16 @ 17:20 UTC
(10 minutes ago)
VFR
Wind Visibility
80° at 5 knots 10,000+ meters
Clouds
  • Few at 2,300' AGL
  • Broken at 3,600' AGL
Conditions
  • Light Rain
  • Light Snow
Temperature Dewpoint
1°C / 34°F 0°C / 32°F
Humidity Altimeter Pressure
93% 29.97" Hg 1015 hPa